Time;durP1;ratioP1;P1;durP2;ratioP2;P2;SDS_P1;SDS_P2;PMS_P1;PMS_P2;Temp;Humidity;BMP_temperature;BMP_pressure;BME280_temperature;BME280_humidity;BME280_pressure;Samples;Min_cycle;Max_cycle;Signal;HPM_P1;HPM_P2
2021/04/24 00:02:59;;;;;;;45.33;18.67;;;;;;;2.60;83.04;99539.22;2161213;81;21289;-73
2021/04/24 00:06:00;;;;;;;46.30;18.77;;;;;;;2.62;82.92;99535.30;2161075;82;21289;-74
2021/04/24 00:09:00;;;;;;;43.30;17.50;;;;;;;2.65;83.05;99540.42;2161429;82;21155;-73
2021/04/24 00:12:01;;;;;;;42.62;16.73;;;;;;;2.64;83.10;99538.70;2161109;82;21289;-74
2021/04/24 00:15:02;;;;;;;39.23;15.85;;;;;;;2.63;83.51;99540.03;2140050;82;21309;-74
2021/04/24 00:18:04;;;;;;;42.48;16.93;;;;;;;2.64;83.46;99545.64;2161129;82;21321;-74
2021/04/24 00:21:05;;;;;;;44.35;17.17;;;;;;;2.64;83.47;99539.16;2161137;82;21100;-73
2021/04/24 00:24:06;;;;;;;44.70;19.20;;;;;;;2.67;83.37;99538.69;2161329;82;21266;-74
2021/04/24 00:27:08;;;;;;;46.88;19.65;;;;;;;2.72;83.26;99538.59;2161128;82;21302;-74
2021/04/24 00:30:08;;;;;;;46.73;18.90;;;;;;;2.72;83.10;99536.01;2161077;82;21405;-74
2021/04/24 00:33:09;;;;;;;43.63;18.15;;;;;;;2.67;83.09;99526.15;2161177;82;21144;-74
2021/04/24 00:36:10;;;;;;;42.23;17.55;;;;;;;2.70;83.12;99531.27;2161061;82;21179;-74
2021/04/24 00:39:11;;;;;;;44.18;18.73;;;;;;;2.72;83.00;99529.08;2161187;82;21282;-75
2021/04/24 00:42:13;;;;;;;45.38;19.00;;;;;;;2.74;83.04;99523.45;2161083;82;21590;-74
2021/04/24 00:45:14;;;;;;;47.60;19.87;;;;;;;2.83;82.91;99534.08;2161136;82;21789;-74
2021/04/24 00:48:15;;;;;;;45.92;19.50;;;;;;;2.85;82.69;99530.16;2161040;82;21144;-75
2021/04/24 00:51:16;;;;;;;42.93;18.73;;;;;;;2.85;82.60;99531.46;2161061;82;21607;-74
2021/04/24 00:54:17;;;;;;;48.08;18.95;;;;;;;2.84;82.49;99530.59;2161076;82;21131;-74
2021/04/24 00:57:18;;;;;;;40.23;17.12;;;;;;;2.89;82.52;99536.55;2161035;82;21148;-74
2021/04/24 01:00:22;;;;;;;54.40;19.95;;;;;;;2.97;82.34;99525.19;2161392;82;21602;-74
2021/04/24 01:03:21;;;;;;;59.53;25.65;;;;;;;3.01;82.35;99530.73;2167544;81;21272;-74
2021/04/24 01:06:22;;;;;;;54.15;23.30;;;;;;;3.04;82.20;99536.70;2178488;81;21272;-74
2021/04/24 01:09:23;;;;;;;51.15;21.93;;;;;;;3.06;82.08;99528.89;2150605;82;21675;-75
2021/04/24 01:12:24;;;;;;;54.58;21.97;;;;;;;3.08;82.04;99521.95;2178710;81;21567;-75
2021/04/24 01:15:25;;;;;;;49.23;19.57;;;;;;;3.08;81.90;99518.06;2178470;82;21154;-74
2021/04/24 01:18:26;;;;;;;47.62;17.95;;;;;;;3.06;81.76;99519.39;2150717;82;21272;-74
2021/04/24 01:21:27;;;;;;;48.05;18.37;;;;;;;3.08;81.86;99521.95;2178803;81;21134;-74
2021/04/24 01:24:28;;;;;;;43.30;18.67;;;;;;;3.13;81.82;99526.59;2178413;81;21091;-74
2021/04/24 01:27:29;;;;;;;45.05;18.82;;;;;;;3.11;81.80;99514.95;2178383;81;21146;-75
2021/04/24 01:30:30;;;;;;;48.92;19.30;;;;;;;3.11;81.64;99515.41;2178456;81;21590;-75
2021/04/24 01:33:31;;;;;;;49.55;21.17;;;;;;;3.07;81.60;99513.30;2178463;81;21305;-75
2021/04/24 01:36:33;;;;;;;47.53;20.75;;;;;;;3.07;81.74;99514.59;2178459;81;21716;-74
2021/04/24 01:39:34;;;;;;;46.40;20.43;;;;;;;3.04;81.65;99509.48;2178493;81;21194;-74
2021/04/24 01:42:35;;;;;;;43.28;19.17;;;;;;;3.03;81.48;99503.03;2178532;81;21732;-74
2021/04/24 01:45:36;;;;;;;43.60;18.30;;;;;;;3.02;81.47;99499.59;2178454;81;21154;-74
2021/04/24 01:48:37;;;;;;;44.48;18.17;;;;;;;2.94;81.22;99493.28;2178517;81;21146;-74
2021/04/24 01:51:38;;;;;;;46.58;18.30;;;;;;;2.91;81.52;99501.53;2178504;82;21293;-74
2021/04/24 01:54:39;;;;;;;44.63;18.12;;;;;;;2.85;81.66;99515.91;2178432;81;21138;-74
2021/04/24 01:57:40;;;;;;;49.45;20.30;;;;;;;2.64;81.76;99511.52;2178391;81;21634;-74
2021/04/24 02:00:41;;;;;;;43.78;18.32;;;;;;;2.49;82.12;99504.87;2178765;81;21570;-74
2021/04/24 02:03:42;;;;;;;42.33;17.90;;;;;;;2.47;82.45;99496.71;2178355;81;21614;-74
2021/04/24 02:06:43;;;;;;;44.83;16.70;;;;;;;2.43;82.24;99502.40;2178323;81;21107;-74
2021/04/24 02:09:44;;;;;;;42.00;17.45;;;;;;;2.38;82.25;99503.75;2178427;81;21139;-74
2021/04/24 02:12:45;;;;;;;44.27;18.57;;;;;;;2.43;82.67;99498.06;2178415;81;21269;-74
2021/04/24 02:15:46;;;;;;;44.75;18.27;;;;;;;2.49;82.41;99497.56;2178372;82;21582;-74
2021/04/24 02:18:47;;;;;;;44.50;18.73;;;;;;;2.56;82.40;99505.63;2178391;81;21103;-74
2021/04/24 02:21:48;;;;;;;43.63;17.98;;;;;;;2.59;82.13;99498.64;2178772;81;21138;-74
2021/04/24 02:24:49;;;;;;;42.55;17.12;;;;;;;2.60;82.29;99496.48;2178392;81;21154;-74
2021/04/24 02:27:50;;;;;;;43.38;16.05;;;;;;;2.53;82.20;99496.17;2178343;81;21142;-74
2021/04/24 02:30:51;;;;;;;46.10;18.20;;;;;;;2.51;82.27;99497.08;2178516;81;21091;-74
2021/04/24 02:33:52;;;;;;;39.03;17.23;;;;;;;2.51;82.54;99504.39;2178454;81;21139;-74
2021/04/24 02:36:53;;;;;;;42.93;18.73;;;;;;;2.48;82.41;99503.16;2178346;81;21142;-74
2021/04/24 02:39:54;;;;;;;45.08;18.52;;;;;;;2.45;82.49;99495.90;2178328;81;21134;-74
2021/04/24 02:42:55;;;;;;;46.98;20.17;;;;;;;2.48;82.65;99504.91;2178332;81;21594;-74
2021/04/24 02:45:56;;;;;;;48.68;19.65;;;;;;;2.55;82.61;99511.23;2178286;81;22268;-74
2021/04/24 02:48:58;;;;;;;45.20;21.33;;;;;;;2.52;82.42;99507.41;2178198;82;21115;-74
2021/04/24 02:51:59;;;;;;;43.78;17.15;;;;;;;2.47;82.37;99507.06;2178370;82;21138;-74
2021/04/24 02:55:00;;;;;;;35.03;13.95;;;;;;;2.37;82.64;99511.55;2178366;82;21705;-74
2021/04/24 02:58:01;;;;;;;39.53;14.25;;;;;;;2.23;83.40;99509.20;2178353;81;21131;-74
2021/04/24 03:01:02;;;;;;;39.13;14.18;;;;;;;2.06;84.32;99520.66;2178521;81;21284;-74
2021/04/24 03:04:03;;;;;;;38.50;15.13;;;;;;;1.97;84.37;99519.52;2178330;81;21150;-74
2021/04/24 03:07:04;;;;;;;39.83;15.48;;;;;;;1.94;84.84;99517.39;2178661;81;21648;-74
2021/04/24 03:10:05;;;;;;;39.92;14.47;;;;;;;1.94;85.75;99523.44;2178367;81;21094;-74
2021/04/24 03:13:06;;;;;;;35.95;13.70;;;;;;;1.94;85.17;99523.86;2178370;81;21147;-74
2021/04/24 03:16:07;;;;;;;35.95;13.70;;;;;;;1.95;85.21;99522.55;2178336;81;21622;-74
2021/04/24 03:19:08;;;;;;;34.90;13.30;;;;;;;1.95;84.96;99532.89;2178706;81;21587;-74
2021/04/24 03:22:08;;;;;;;36.73;13.22;;;;;;;1.93;84.54;99528.19;2151031;82;21143;-74
2021/04/24 03:25:09;;;;;;;41.02;13.68;;;;;;;1.90;84.45;99531.67;2178687;81;21130;-74
2021/04/24 03:28:10;;;;;;;36.70;13.05;;;;;;;1.87;83.92;99531.72;2178295;81;21162;-74
2021/04/24 03:31:12;;;;;;;34.65;13.05;;;;;;;1.84;83.80;99528.30;2178514;81;21610;-74
2021/04/24 03:34:13;;;;;;;35.05;12.00;;;;;;;1.80;83.67;99527.52;2178701;81;21678;-74
2021/04/24 03:37:14;;;;;;;42.65;12.80;;;;;;;1.76;83.41;99528.42;2178539;81;21145;-74
2021/04/24 03:40:15;;;;;;;41.40;13.85;;;;;;;1.71;83.13;99528.50;2178565;81;21127;-74
2021/04/24 03:43:16;;;;;;;34.78;12.45;;;;;;;1.68;83.08;99522.49;2178538;81;21118;-74
2021/04/24 03:46:17;;;;;;;35.35;12.47;;;;;;;1.64;82.72;99512.64;2178878;81;21131;-73
2021/04/24 03:49:18;;;;;;;38.78;13.00;;;;;;;1.65;82.45;99493.67;2179134;81;21158;-74
2021/04/24 03:52:19;;;;;;;34.65;13.50;;;;;;;1.67;82.19;99488.48;2178646;81;21166;-73
2021/04/24 03:55:20;;;;;;;44.03;17.15;;;;;;;1.69;82.15;99497.91;2178499;81;21138;-74
2021/04/24 03:58:21;;;;;;;49.88;20.90;;;;;;;1.80;82.32;99505.97;2178872;81;21143;-73
2021/04/24 04:01:22;;;;;;;50.95;21.70;;;;;;;1.93;82.23;99504.91;2178539;81;21709;-74
2021/04/24 04:04:23;;;;;;;51.35;20.77;;;;;;;1.97;81.90;99500.52;2178476;81;21123;-74
2021/04/24 04:07:24;;;;;;;50.70;21.97;;;;;;;2.07;81.81;99503.41;2150924;82;21154;-74
2021/04/24 04:10:25;;;;;;;51.65;21.30;;;;;;;2.19;81.74;99501.91;2178509;82;21099;-74
2021/04/24 04:13:26;;;;;;;45.00;18.10;;;;;;;2.35;81.58;99510.27;2178510;81;21119;-74
2021/04/24 04:16:27;;;;;;;46.63;19.12;;;;;;;2.46;81.11;99497.16;2178480;81;21125;-74
2021/04/24 04:19:28;;;;;;;43.58;17.62;;;;;;;2.54;80.76;99505.66;2178511;82;21137;-74
2021/04/24 04:22:29;;;;;;;44.15;18.30;;;;;;;2.60;80.58;99504.67;2178448;81;21162;-74
2021/04/24 04:25:30;;;;;;;46.15;19.52;;;;;;;2.66;80.45;99513.66;2178605;81;21134;-75
2021/04/24 04:28:31;;;;;;;46.00;17.80;;;;;;;2.69;80.14;99517.93;2178576;81;21146;-73
2021/04/24 04:31:32;;;;;;;37.08;17.15;;;;;;;2.74;80.09;99526.03;2178491;81;21792;-73
2021/04/24 04:34:33;;;;;;;46.85;19.25;;;;;;;2.73;80.11;99532.09;2178514;81;21138;-76
2021/04/24 04:37:34;;;;;;;48.40;20.50;;;;;;;2.77;80.35;99531.16;2178462;81;21131;-75
2021/04/24 04:40:35;;;;;;;40.25;17.00;;;;;;;2.85;80.53;99528.87;2178459;81;21123;-76
2021/04/24 04:43:36;;;;;;;39.80;15.35;;;;;;;3.01;79.94;99532.88;2178429;81;21254;-76
2021/04/24 04:46:37;;;;;;;35.48;11.97;;;;;;;3.10;79.96;99528.83;2178666;81;21158;-76
2021/04/24 04:49:38;;;;;;;37.42;14.03;;;;;;;3.08;77.77;99534.46;2178748;81;21138;-76
2021/04/24 04:52:39;;;;;;;35.08;12.75;;;;;;;3.11;78.95;99533.55;2126637;82;21134;-77
2021/04/24 04:55:40;;;;;;;31.95;11.68;;;;;;;3.09;78.19;99545.25;2178532;81;21087;-75
2021/04/24 04:58:41;;;;;;;31.30;10.15;;;;;;;3.04;77.60;99544.92;2178498;81;21147;-74
2021/04/24 05:01:42;;;;;;;30.50;10.55;;;;;;;3.04;76.86;99549.66;2150641;82;21292;-76
2021/04/24 05:04:43;;;;;;;31.37;10.88;;;;;;;3.07;77.34;99551.34;2169792;81;21309;-74
2021/04/24 05:11:22;;;;;;;32.90;10.13;;;;;;;3.16;76.11;99552.48;2161070;82;21218;-76
2021/04/24 05:14:23;;;;;;;28.62;10.40;;;;;;;3.31;76.51;99551.32;2161288;82;21297;-76
2021/04/24 05:17:24;;;;;;;34.15;12.18;;;;;;;3.52;75.85;99543.98;2160964;82;21732;-74
2021/04/24 05:20:25;;;;;;;30.82;11.53;;;;;;;3.85;76.10;99545.02;2161268;82;21261;-74
2021/04/24 05:23:26;;;;;;;34.33;12.70;;;;;;;4.04;74.15;99546.75;2161295;82;21135;-73
2021/04/24 05:26:27;;;;;;;35.63;12.53;;;;;;;3.99;74.66;99553.78;2161084;82;21714;-75
2021/04/24 05:29:29;;;;;;;32.73;11.20;;;;;;;3.90;74.18;99556.14;2161067;82;21293;-74
2021/04/24 05:32:30;;;;;;;31.17;9.90;;;;;;;3.85;75.21;99564.91;2161032;82;21297;-74
2021/04/24 05:35:31;;;;;;;32.70;10.78;;;;;;;3.98;73.65;99563.78;2139877;82;21246;-73
2021/04/24 05:38:32;;;;;;;30.77;10.85;;;;;;;3.96;74.47;99559.89;2140234;82;21099;-74
2021/04/24 05:41:33;;;;;;;31.48;10.75;;;;;;;3.93;74.19;99565.16;2161019;82;21179;-75
2021/04/24 05:44:34;;;;;;;31.65;10.50;;;;;;;4.01;73.28;99566.30;2160971;82;21321;-74
2021/04/24 05:47:35;;;;;;;26.20;8.50;;;;;;;4.15;72.88;99565.97;2140034;82;21155;-75
2021/04/24 05:50:36;;;;;;;26.33;8.58;;;;;;;4.20;72.35;99579.71;2161020;82;21630;-74
2021/04/24 05:53:37;;;;;;;26.48;8.60;;;;;;;4.23;71.51;99581.39;2161012;82;21092;-74
2021/04/24 05:56:38;;;;;;;28.23;8.65;;;;;;;4.26;71.61;99578.27;2161074;82;21135;-74
2021/04/24 05:59:39;;;;;;;25.90;8.50;;;;;;;4.36;72.37;99578.06;2161030;82;21136;-74
2021/04/24 06:02:40;;;;;;;25.52;7.97;;;;;;;4.42;71.35;99577.45;2161111;82;21262;-74
2021/04/24 06:05:42;;;;;;;24.98;8.68;;;;;;;4.50;72.18;99575.99;2173611;82;21738;-74
2021/04/24 06:08:43;;;;;;;27.58;7.87;;;;;;;4.56;72.46;99584.92;2178509;81;21278;-76
2021/04/24 06:11:44;;;;;;;26.25;7.90;;;;;;;4.59;70.51;99584.84;2178356;82;21733;-75
2021/04/24 06:14:45;;;;;;;25.75;8.43;;;;;;;4.67;70.37;99579.48;2178431;81;21142;-75
2021/04/24 06:17:46;;;;;;;24.00;8.13;;;;;;;4.73;72.78;99579.78;2178383;81;21142;-75
2021/04/24 06:20:47;;;;;;;26.15;8.90;;;;;;;4.83;70.77;99584.69;2178409;81;21589;-74
2021/04/24 06:23:48;;;;;;;26.45;8.53;;;;;;;4.86;70.46;99591.11;2178486;81;21153;-75
2021/04/24 06:26:49;;;;;;;29.02;9.50;;;;;;;4.99;71.25;99587.74;2178438;81;21122;-74
2021/04/24 06:29:50;;;;;;;26.73;8.38;;;;;;;5.14;71.28;99592.14;2178461;81;21304;-74
2021/04/24 06:32:51;;;;;;;26.40;8.10;;;;;;;5.28;69.96;99595.68;2178382;81;21102;-76
2021/04/24 06:35:52;;;;;;;24.05;7.00;;;;;;;5.56;68.37;99594.48;2178358;81;21297;-74
2021/04/24 06:38:54;;;;;;;21.25;5.58;;;;;;;5.83;65.68;99600.64;2178321;82;21406;-74
2021/04/24 06:41:55;;;;;;;23.25;6.62;;;;;;;6.02;62.47;99603.58;2150519;82;21285;-73
2021/04/24 06:44:57;;;;;;;23.40;6.62;;;;;;;6.05;60.94;99607.39;2178737;81;21273;-74
2021/04/24 06:47:59;;;;;;;20.02;5.33;;;;;;;5.86;62.61;99604.45;2150662;82;21589;-74
2021/04/24 06:51:00;;;;;;;21.50;5.40;;;;;;;5.75;60.28;99608.25;2178472;81;21146;-73
2021/04/24 06:54:01;;;;;;;19.67;5.13;;;;;;;5.71;61.01;99618.75;2150899;82;21712;-74
2021/04/24 06:57:02;;;;;;;20.20;5.30;;;;;;;5.67;63.11;99607.17;2178464;81;21131;-74
2021/04/24 07:00:03;;;;;;;18.62;4.90;;;;;;;5.69;62.27;99608.00;2178477;81;21166;-74
2021/04/24 07:03:04;;;;;;;20.43;5.47;;;;;;;5.69;62.61;99608.00;2178357;82;21155;-74
2021/04/24 07:06:05;;;;;;;19.57;5.00;;;;;;;5.79;62.54;99607.27;2178191;81;21626;-73
2021/04/24 07:09:06;;;;;;;20.23;5.12;;;;;;;5.86;60.55;99608.36;2178689;81;21602;-74
2021/04/24 07:12:07;;;;;;;19.75;4.97;;;;;;;6.07;63.52;99602.14;2178348;82;21720;-75
2021/04/24 07:15:08;;;;;;;20.68;5.30;;;;;;;6.40;64.93;99602.84;2178474;82;21166;-74
2021/04/24 07:18:09;;;;;;;19.92;5.17;;;;;;;6.58;62.61;99599.27;2178444;81;21151;-74
2021/04/24 07:21:10;;;;;;;21.77;5.45;;;;;;;6.86;62.25;99597.05;2178378;81;21292;-74
2021/04/24 07:24:12;;;;;;;21.27;5.60;;;;;;;7.15;62.29;99596.05;2178384;81;21260;-73
2021/04/24 07:27:12;;;;;;;19.48;5.35;;;;;;;7.35;63.46;99592.74;2178331;81;21717;-74
2021/04/24 07:30:14;;;;;;;21.07;5.23;;;;;;;7.85;60.34;99588.36;2178832;81;21289;-75
2021/04/24 07:33:15;;;;;;;19.67;4.85;;;;;;;8.15;57.26;99586.33;2178326;82;21582;-75
2021/04/24 07:36:18;;;;;;;20.85;5.03;;;;;;;8.41;60.37;99585.30;2178451;81;21127;-74
2021/04/24 07:39:19;;;;;;;23.75;5.40;;;;;;;8.52;57.57;99595.37;2178320;82;21123;-73
2021/04/24 07:42:21;;;;;;;17.07;4.45;;;;;;;8.49;60.12;99596.34;2178465;82;21277;-74
2021/04/24 07:45:22;;;;;;;19.05;4.30;;;;;;;8.14;55.66;99593.30;2178531;81;21289;-73
2021/04/24 07:48:23;;;;;;;18.35;4.75;;;;;;;7.75;57.95;99600.90;2178317;81;21143;-74
2021/04/24 07:51:24;;;;;;;18.73;4.67;;;;;;;7.50;58.55;99603.54;2178347;81;21154;-75
2021/04/24 07:54:25;;;;;;;17.17;3.98;;;;;;;7.32;58.92;99605.91;2178455;82;21138;-73
2021/04/24 07:57:28;;;;;;;19.95;4.30;;;;;;;7.26;58.20;99601.75;2178392;82;21725;-76
2021/04/24 08:00:29;;;;;;;19.05;3.90;;;;;;;7.20;57.16;99606.35;2178286;82;21725;-74
2021/04/24 08:03:31;;;;;;;16.95;4.15;;;;;;;7.10;55.08;99600.59;2178620;81;21257;-74
2021/04/24 08:06:31;;;;;;;14.73;3.50;;;;;;;6.95;55.98;99608.47;2178342;81;21147;-77
2021/04/24 08:09:32;;;;;;;14.90;3.60;;;;;;;6.93;56.70;99600.70;2178332;81;21150;-74
2021/04/24 08:12:33;;;;;;;15.88;3.70;;;;;;;6.94;57.89;99598.96;2178350;81;21142;-75
2021/04/24 08:15:34;;;;;;;17.62;3.75;;;;;;;7.07;57.02;99600.23;2178326;81;21292;-73
2021/04/24 08:18:36;;;;;;;18.82;4.15;;;;;;;7.19;59.05;99600.72;2178523;82;21154;-73
2021/04/24 08:21:39;;;;;;;15.98;3.35;;;;;;;7.28;57.43;99601.27;2178500;81;21732;-74
2021/04/24 08:24:40;;;;;;;13.75;3.62;;;;;;;7.37;52.32;99597.91;2178643;82;21277;-75
2021/04/24 08:27:41;;;;;;;16.52;3.83;;;;;;;7.74;55.78;99592.23;2178437;81;21297;-73
2021/04/24 08:30:42;;;;;;;18.60;3.27;;;;;;;7.90;55.11;99598.16;2178463;81;21296;-75
2021/04/24 08:33:43;;;;;;;14.45;3.55;;;;;;;7.98;56.09;99586.51;2178600;81;21905;-73
2021/04/24 08:36:44;;;;;;;13.08;3.12;;;;;;;8.40;54.08;99596.66;2178590;81;21285;-76
2021/04/24 08:39:45;;;;;;;15.15;3.40;;;;;;;9.04;50.72;99581.89;2178719;81;21702;-74
2021/04/24 08:42:48;;;;;;;16.27;3.80;;;;;;;9.35;49.52;99575.31;2178826;81;21159;-74
2021/04/24 08:45:49;;;;;;;13.98;3.30;;;;;;;9.18;52.71;99583.92;2178468;81;21729;-73
2021/04/24 08:48:51;;;;;;;16.80;3.00;;;;;;;8.94;48.37;99581.42;2178482;81;21135;-73
2021/04/24 08:51:52;;;;;;;14.20;3.42;;;;;;;9.03;50.69;99580.65;2178497;81;21261;-73
2021/04/24 08:54:53;;;;;;;16.25;3.55;;;;;;;9.13;47.19;99585.41;2178563;81;21304;-73
2021/04/24 08:57:53;;;;;;;16.60;3.75;;;;;;;9.30;51.01;99587.77;2178394;81;21159;-73
2021/04/24 09:00:55;;;;;;;16.15;3.47;;;;;;;9.61;47.68;99568.06;2178579;81;21103;-74
2021/04/24 09:03:56;;;;;;;17.02;3.90;;;;;;;9.35;50.74;99577.92;2178605;81;21130;-78
2021/04/24 09:06:58;;;;;;;15.58;3.77;;;;;;;9.17;52.11;99575.67;2178618;81;21289;-77
2021/04/24 09:09:59;;;;;;;14.70;3.42;;;;;;;8.79;49.07;99575.08;2178475;81;21577;-73
2021/04/24 09:13:00;;;;;;;14.15;3.40;;;;;;;8.55;51.19;99570.40;2178509;81;21130;-74
2021/04/24 09:16:02;;;;;;;11.90;3.05;;;;;;;8.44;48.83;99570.82;2150882;82;21602;-77
2021/04/24 09:19:03;;;;;;;14.78;3.10;;;;;;;8.54;49.80;99573.08;2178455;81;21304;-73
2021/04/24 09:22:05;;;;;;;19.02;3.65;;;;;;;8.65;48.99;99574.33;2178486;81;21139;-74
2021/04/24 09:25:06;;;;;;;17.17;3.17;;;;;;;8.89;52.21;99557.20;2178380;81;21602;-76
2021/04/24 09:28:08;;;;;;;13.95;3.37;;;;;;;9.17;47.61;99559.50;2178761;81;21582;-78
2021/04/24 09:31:10;;;;;;;14.87;3.52;;;;;;;9.22;47.18;99557.14;2178464;81;21610;-77
2021/04/24 09:34:12;;;;;;;11.48;3.12;;;;;;;9.54;50.50;99545.25;2178728;81;21273;-78
2021/04/24 09:37:13;;;;;;;15.10;3.40;;;;;;;10.06;49.94;99536.73;2150635;82;21632;-75
2021/04/24 09:40:14;;;;;;;14.53;3.22;;;;;;;10.14;47.54;99535.92;2178897;81;21154;-73
2021/04/24 09:43:15;;;;;;;17.80;3.40;;;;;;;10.28;48.91;99536.55;2178436;82;21126;-73
2021/04/24 09:46:16;;;;;;;15.05;3.45;;;;;;;10.50;49.23;99535.52;2178404;81;21601;-72
2021/04/24 09:49:17;;;;;;;14.33;3.30;;;;;;;10.57;44.19;99543.47;2178458;81;21757;-72
2021/04/24 09:52:18;;;;;;;12.47;3.27;;;;;;;10.12;43.28;99524.64;2178386;81;21289;-75
2021/04/24 09:55:19;;;;;;;14.03;3.20;;;;;;;10.62;48.85;99519.66;2178740;81;21158;-72
2021/04/24 09:58:20;;;;;;;15.80;3.37;;;;;;;10.88;45.65;99519.17;2178752;81;21139;-73
2021/04/24 10:01:21;;;;;;;13.55;3.20;;;;;;;11.18;46.66;99511.11;2178404;81;21127;-73
2021/04/24 10:04:22;;;;;;;14.75;3.50;;;;;;;11.26;46.37;99511.53;2150645;82;21733;-73
2021/04/24 10:07:23;;;;;;;15.08;3.52;;;;;;;10.89;45.36;99510.86;2178409;81;21721;-73
2021/04/24 10:10:24;;;;;;;14.40;3.20;;;;;;;11.06;45.25;99496.83;2178549;81;21150;-75
2021/04/24 10:13:25;;;;;;;13.48;3.52;;;;;;;11.90;43.60;99486.65;2178437;81;21155;-73
2021/04/24 10:16:26;;;;;;;15.78;3.72;;;;;;;11.97;45.74;99486.72;2178303;82;21764;-78
2021/04/24 10:19:29;;;;;;;16.27;3.50;;;;;;;11.81;44.30;99489.33;2178526;81;21269;-74
2021/04/24 10:22:32;;;;;;;15.35;3.70;;;;;;;11.11;44.60;99496.13;2178596;81;21304;-76
2021/04/24 10:25:33;;;;;;;15.32;3.45;;;;;;;10.40;41.26;99494.03;2150621;82;21123;-74
2021/04/24 10:28:35;;;;;;;17.52;3.60;;;;;;;9.76;43.17;99501.88;2178473;81;21146;-78
2021/04/24 10:31:36;;;;;;;13.03;3.00;;;;;;;9.56;44.95;99488.40;2178411;82;21264;-77
2021/04/24 10:34:37;;;;;;;16.37;4.00;;;;;;;9.50;43.58;99494.77;2178496;81;21606;-78
2021/04/24 10:37:38;;;;;;;16.20;3.70;;;;;;;9.49;43.71;99496.98;2178484;81;21139;-76
2021/04/24 10:40:39;;;;;;;14.00;3.70;;;;;;;9.43;43.80;99498.59;2150574;82;21261;-75
2021/04/24 10:43:40;;;;;;;15.05;3.62;;;;;;;9.37;43.41;99488.41;2178371;81;21630;-75
2021/04/24 10:46:41;;;;;;;16.17;3.58;;;;;;;9.44;43.98;99502.04;2178323;81;21253;-76
2021/04/24 10:49:42;;;;;;;14.13;3.58;;;;;;;9.67;44.00;99490.53;2178698;81;21150;-73
2021/04/24 10:52:44;;;;;;;20.70;4.12;;;;;;;9.80;45.05;99485.57;2178381;82;21126;-75
2021/04/24 10:55:46;;;;;;;16.05;4.03;;;;;;;9.79;43.42;99491.72;2178481;82;21574;-75
2021/04/24 10:58:47;;;;;;;17.45;3.60;;;;;;;9.61;44.83;99487.73;2178628;81;21325;-74
2021/04/24 11:01:48;;;;;;;15.23;3.75;;;;;;;9.50;44.40;99479.52;2178710;81;21285;-74
2021/04/24 11:04:49;;;;;;;14.05;3.52;;;;;;;9.56;45.92;99471.38;2178290;81;21146;-73
2021/04/24 11:07:50;;;;;;;14.43;3.58;;;;;;;9.62;47.12;99472.39;2178817;82;21305;-75
2021/04/24 11:10:51;;;;;;;17.48;3.85;;;;;;;9.57;44.85;99477.02;2178380;81;21150;-75
2021/04/24 11:13:54;;;;;;;18.73;4.20;;;;;;;9.40;44.07;99484.80;2178413;81;21582;-73
2021/04/24 11:16:55;;;;;;;17.65;4.12;;;;;;;9.18;47.04;99489.23;2178329;82;21269;-74
2021/04/24 11:19:56;;;;;;;18.48;4.08;;;;;;;8.92;45.91;99483.84;2178357;81;21135;-73
2021/04/24 11:22:57;;;;;;;17.15;3.90;;;;;;;8.79;48.07;99498.35;2178349;81;21095;-73
2021/04/24 11:25:58;;;;;;;20.60;4.60;;;;;;;8.66;47.58;99500.20;2178330;81;21277;-73
2021/04/24 11:28:59;;;;;;;18.23;4.10;;;;;;;8.73;49.71;99486.86;2178418;81;21143;-73
2021/04/24 11:32:00;;;;;;;19.45;4.92;;;;;;;9.18;49.85;99491.84;2178455;82;21146;-73
2021/04/24 11:35:02;;;;;;;19.42;4.50;;;;;;;9.50;47.77;99478.22;2178452;81;21590;-73
2021/04/24 11:38:03;;;;;;;18.17;4.75;;;;;;;9.84;49.79;99476.61;2178836;81;21309;-73
2021/04/24 11:41:04;;;;;;;19.25;4.60;;;;;;;10.69;48.27;99483.84;2178304;81;21162;-73
2021/04/24 11:44:05;;;;;;;18.10;4.42;;;;;;;11.10;46.24;99476.05;2150723;82;21562;-73
2021/04/24 11:47:06;;;;;;;19.57;4.37;;;;;;;10.98;46.99;99474.09;2178290;81;21185;-73
2021/04/24 11:50:07;;;;;;;16.85;4.42;;;;;;;10.84;46.45;99468.23;2178689;82;21272;-73
2021/04/24 11:53:08;;;;;;;18.12;4.53;;;;;;;10.86;47.64;99475.55;2178544;81;21091;-73
2021/04/24 11:56:09;;;;;;;20.68;4.70;;;;;;;10.82;46.10;99465.70;2178877;81;21107;-73
2021/04/24 11:59:10;;;;;;;17.75;4.35;;;;;;;10.70;45.51;99464.56;2178539;81;21126;-74
2021/04/24 12:02:11;;;;;;;19.45;4.22;;;;;;;10.48;46.67;99474.44;2178885;81;21288;-73
2021/04/24 12:05:12;;;;;;;19.20;4.25;;;;;;;10.25;45.40;99467.69;2177379;81;21300;-76
2021/04/24 12:08:13;;;;;;;15.53;3.72;;;;;;;9.87;43.11;99506.63;2161399;82;21543;-73
2021/04/24 12:11:14;;;;;;;18.80;4.62;;;;;;;9.71;43.87;99473.72;2161224;82;21297;-73
2021/04/24 12:14:15;;;;;;;18.37;4.50;;;;;;;9.67;46.75;99474.34;2161346;82;21690;-73
2021/04/24 12:17:16;;;;;;;18.95;4.50;;;;;;;9.63;46.90;99474.09;2161089;82;21104;-73
2021/04/24 12:20:17;;;;;;;18.48;4.50;;;;;;;9.68;46.14;99474.74;2161211;82;21147;-73
2021/04/24 12:23:18;;;;;;;16.32;4.30;;;;;;;10.22;47.66;99476.08;2161103;82;21151;-75
2021/04/24 12:26:20;;;;;;;20.15;5.03;;;;;;;10.80;44.84;99471.47;2161059;82;21270;-74
2021/04/24 12:29:21;;;;;;;18.10;4.80;;;;;;;10.90;46.27;99467.47;2140073;82;21286;-73
2021/04/24 12:32:22;;;;;;;18.15;4.42;;;;;;;11.22;45.02;99462.28;2161441;82;21540;-73
2021/04/24 12:35:23;;;;;;;17.80;4.33;;;;;;;11.01;44.26;99454.23;2161066;82;21139;-73
2021/04/24 12:38:24;;;;;;;19.10;4.78;;;;;;;11.44;46.54;99444.05;2161038;82;21198;-73
2021/04/24 12:41:25;;;;;;;18.70;4.58;;;;;;;11.65;41.79;99437.22;2161169;82;21140;-74
2021/04/24 12:44:27;;;;;;;18.62;4.55;;;;;;;11.40;42.27;99438.58;2161567;81;21138;-74
2021/04/24 12:47:28;;;;;;;18.53;4.10;;;;;;;11.01;42.01;99441.12;2161338;82;21720;-75
2021/04/24 12:50:29;;;;;;;14.78;3.90;;;;;;;10.78;41.23;99440.54;2161165;82;21975;-76
2021/04/24 12:53:30;;;;;;;18.17;4.55;;;;;;;10.55;42.23;99441.73;2161144;82;21305;-74
2021/04/24 12:56:31;;;;;;;16.02;3.98;;;;;;;10.47;42.72;99437.33;2161126;82;21728;-77
2021/04/24 12:59:32;;;;;;;19.50;4.33;;;;;;;10.40;42.80;99449.45;2161042;82;21171;-76
2021/04/24 13:02:33;;;;;;;20.23;4.62;;;;;;;11.01;44.63;99437.17;2161110;82;21167;-74
2021/04/24 13:05:35;;;;;;;14.40;3.60;;;;;;;11.34;42.35;99438.45;2162391;82;21178;-74
2021/04/24 13:08:36;;;;;;;17.45;4.15;;;;;;;11.59;42.87;99422.64;2178634;82;21186;-74
2021/04/24 13:11:37;;;;;;;14.40;3.92;;;;;;;11.78;40.33;99429.05;2151230;82;21704;-75
2021/04/24 13:14:38;;;;;;;15.70;3.87;;;;;;;11.41;39.85;99435.03;2150681;82;21191;-75
2021/04/24 13:17:39;;;;;;;17.75;4.28;;;;;;;11.55;42.21;99415.86;2150489;82;21101;-75
2021/04/24 13:20:41;;;;;;;17.23;3.73;;;;;;;11.41;40.56;99417.48;2177332;82;21181;-74
2021/04/24 13:23:42;;;;;;;13.53;3.55;;;;;;;11.50;41.86;99404.78;2178293;81;21143;-75
2021/04/24 13:26:43;;;;;;;17.48;3.90;;;;;;;11.41;40.46;99412.70;2178451;81;21147;-75
2021/04/24 13:29:46;;;;;;;16.90;4.17;;;;;;;12.01;39.42;99413.31;2150705;82;21265;-74
2021/04/24 13:32:47;;;;;;;15.90;4.03;;;;;;;12.42;41.05;99396.03;2178416;81;21151;-74
2021/04/24 13:35:48;;;;;;;19.25;4.58;;;;;;;12.74;40.74;99398.06;2178430;81;21558;-75
2021/04/24 13:38:50;;;;;;;17.85;4.50;;;;;;;12.54;38.16;99403.66;2178463;81;21142;-74
2021/04/24 13:41:51;;;;;;;20.32;4.50;;;;;;;12.75;39.50;99397.09;2178569;82;21284;-75
2021/04/24 13:44:52;;;;;;;15.90;4.33;;;;;;;12.74;39.06;99403.33;2178403;81;21095;-75
2021/04/24 13:47:53;;;;;;;14.43;4.15;;;;;;;12.36;37.79;99397.25;2178515;81;21171;-75
2021/04/24 13:50:54;;;;;;;17.48;4.20;;;;;;;12.32;37.71;99387.00;2178399;82;21151;-74
2021/04/24 13:53:55;;;;;;;18.23;3.87;;;;;;;11.88;40.85;99397.81;2178441;81;21139;-75
2021/04/24 13:56:56;;;;;;;18.60;3.98;;;;;;;11.56;41.02;99388.66;2178388;81;21273;-75
2021/04/24 13:59:57;;;;;;;15.38;3.83;;;;;;;11.25;40.59;99386.44;2178363;81;21598;-75
2021/04/24 14:02:58;;;;;;;20.05;4.33;;;;;;;11.25;40.16;99400.88;2178432;81;21118;-75
2021/04/24 14:05:59;;;;;;;16.77;4.00;;;;;;;11.83;39.23;99407.76;2178312;81;21155;-75
2021/04/24 14:09:00;;;;;;;19.50;4.20;;;;;;;12.27;39.74;99380.70;2178501;82;21273;-74
2021/04/24 14:12:01;;;;;;;18.77;4.70;;;;;;;12.44;40.69;99386.25;2178407;82;21130;-75